createdAt,value
2022-08-02T00:00:40.745Z,7.60
2022-08-02T00:03:11.308Z,7.70
2022-08-02T00:05:40.231Z,11.90
2022-08-02T00:08:08.865Z,6.10
2022-08-02T00:10:37.486Z,8.80
2022-08-02T00:13:05.441Z,6.50
2022-08-02T00:15:33.490Z,10.00
2022-08-02T00:18:01.523Z,8.60
2022-08-02T00:20:29.507Z,8.40
2022-08-02T00:22:57.640Z,7.50
2022-08-02T00:25:29.118Z,10.60
2022-08-02T00:27:57.204Z,7.50
2022-08-02T00:30:26.582Z,7.20
2022-08-02T00:32:54.487Z,7.00
2022-08-02T00:35:22.815Z,6.00
2022-08-02T00:37:51.088Z,8.30
2022-08-02T00:40:23.494Z,7.40
2022-08-02T00:43:08.338Z,9.90
2022-08-02T00:46:02.456Z,7.00
2022-08-02T00:48:27.035Z,9.40
2022-08-02T00:50:56.630Z,7.30
2022-08-02T00:53:24.650Z,6.90
2022-08-02T00:55:52.770Z,7.10
2022-08-02T00:58:20.864Z,9.20
2022-08-02T01:00:49.240Z,5.80
2022-08-02T01:03:17.591Z,7.50
2022-08-02T01:06:10.318Z,7.40
2022-08-02T01:08:33.822Z,16.30
2022-08-02T01:11:01.819Z,6.20
2022-08-02T01:13:29.902Z,7.40
2022-08-02T01:16:20.224Z,8.40
2022-08-02T01:18:53.480Z,9.40
2022-08-02T01:22:03.930Z,10.40
2022-08-02T01:25:16.360Z,7.90
2022-08-02T01:28:05.481Z,9.30
2022-08-02T01:30:35.295Z,8.10
2022-08-02T01:33:05.912Z,6.40
2022-08-02T01:35:51.123Z,6.50
2022-08-02T01:38:37.834Z,6.00
2022-08-02T01:41:09.928Z,6.60
2022-08-02T01:43:42.387Z,6.30
2022-08-02T01:46:13.981Z,5.50
2022-08-02T01:48:45.192Z,8.30
2022-08-02T01:51:17.026Z,7.70
2022-08-02T01:53:50.089Z,6.60
2022-08-02T01:56:20.097Z,8.70
2022-08-02T01:58:51.984Z,8.20
2022-08-02T02:01:22.499Z,6.20
2022-08-02T02:03:51.143Z,7.50
2022-08-02T02:06:20.838Z,31.20
2022-08-02T02:08:50.694Z,14.00
2022-08-02T02:12:08.695Z,11.00
2022-08-02T02:14:08.514Z,7.40
2022-08-02T02:16:37.898Z,8.50
2022-08-02T02:19:07.804Z,10.50
2022-08-02T02:21:37.049Z,8.80
2022-08-02T02:24:09.119Z,6.40
2022-08-02T02:26:51.975Z,8.70
2022-08-02T02:29:25.167Z,6.70
2022-08-02T02:31:55.701Z,7.60
2022-08-02T02:34:38.583Z,6.80
2022-08-02T02:37:12.631Z,8.80
2022-08-02T02:39:43.289Z,10.40
2022-08-02T02:42:15.191Z,9.90
2022-08-02T02:44:44.892Z,7.90
2022-08-02T02:47:15.412Z,6.80
2022-08-02T02:49:46.336Z,8.40
2022-08-02T02:52:16.723Z,6.70
2022-08-02T02:54:48.772Z,10.40
2022-08-02T02:57:17.642Z,8.90
2022-08-02T02:59:49.682Z,6.40
2022-08-02T03:02:19.720Z,6.80
2022-08-02T03:04:56.959Z,6.70
2022-08-02T03:07:26.995Z,6.30
2022-08-02T03:09:55.538Z,7.60
2022-08-02T03:12:30.990Z,10.50
2022-08-02T03:15:13.169Z,6.20
2022-08-02T03:17:43.399Z,7.00
2022-08-02T03:20:15.293Z,6.10
2022-08-02T03:22:45.398Z,5.50
2022-08-02T03:25:14.916Z,7.80
2022-08-02T03:27:43.002Z,6.70
2022-08-02T03:30:13.212Z,7.90
2022-08-02T03:32:44.073Z,7.90
2022-08-02T03:35:18.588Z,7.10
2022-08-02T03:37:54.341Z,6.50
2022-08-02T03:40:23.821Z,7.00
2022-08-02T03:42:52.425Z,6.50
2022-08-02T03:45:21.051Z,7.20
2022-08-02T03:47:50.490Z,6.10
2022-08-02T03:50:20.144Z,5.80
2022-08-02T03:52:48.743Z,6.60
2022-08-02T03:55:17.101Z,5.40
2022-08-02T03:57:45.373Z,6.40
2022-08-02T04:00:19.229Z,5.60
2022-08-02T04:02:48.334Z,6.10
2022-08-02T04:05:17.912Z,5.10
2022-08-02T04:08:03.580Z,6.70
2022-08-02T04:10:57.877Z,7.40
2022-08-02T04:13:35.670Z,5.70
2022-08-02T04:16:19.173Z,7.80
2022-08-02T04:18:55.719Z,9.50
2022-08-02T04:21:50.077Z,6.10
2022-08-02T04:24:25.274Z,6.20
2022-08-02T04:26:57.878Z,6.20
2022-08-02T04:29:36.702Z,5.30
2022-08-02T04:32:05.710Z,4.70
2022-08-02T04:34:33.816Z,5.50
2022-08-02T04:37:02.426Z,5.10
2022-08-02T04:39:30.717Z,5.80
2022-08-02T04:42:44.594Z,6.30
2022-08-02T04:46:16.624Z,7.50
2022-08-02T04:49:05.021Z,8.30
2022-08-02T04:52:01.713Z,4.70
2022-08-02T04:54:51.283Z,6.40
2022-08-02T04:57:53.024Z,7.60
2022-08-02T05:00:48.771Z,4.70
2022-08-02T05:03:36.692Z,4.00
2022-08-02T05:06:19.125Z,3.90
2022-08-02T05:09:01.559Z,5.40
2022-08-02T05:11:55.030Z,5.10
2022-08-02T05:14:53.333Z,6.70
2022-08-02T05:17:47.845Z,5.00
2022-08-02T05:20:39.332Z,9.70
2022-08-02T05:23:32.964Z,8.80
2022-08-02T05:26:17.666Z,4.40
2022-08-02T05:29:06.971Z,6.10
2022-08-02T05:31:48.226Z,6.10
2022-08-02T05:34:29.187Z,8.00
2022-08-02T05:37:08.995Z,6.00
2022-08-02T05:39:56.438Z,4.30
2022-08-02T05:42:48.357Z,14.90
2022-08-02T05:45:29.935Z,4.80
2022-08-02T05:48:14.551Z,5.80
2022-08-02T05:51:01.213Z,8.00
2022-08-02T05:54:19.746Z,7.40
2022-08-02T05:57:43.212Z,5.20
2022-08-02T06:00:49.068Z,10.30
2022-08-02T06:03:37.636Z,7.90
2022-08-02T06:06:27.839Z,6.30
2022-08-02T06:09:27.299Z,6.30
2022-08-02T06:12:17.144Z,12.20
2022-08-02T06:15:05.810Z,7.40
2022-08-02T06:17:51.885Z,3.70
2022-08-02T06:20:35.855Z,8.40
2022-08-02T06:23:31.561Z,5.90
2022-08-02T06:26:09.088Z,9.40
2022-08-02T06:28:49.543Z,13.10
2022-08-02T06:31:39.665Z,4.40
2022-08-02T06:34:49.237Z,7.10
2022-08-02T06:38:24.950Z,7.80
2022-08-02T06:41:07.585Z,2.80
2022-08-02T06:47:39.984Z,9.10
2022-08-02T06:50:29.640Z,10.50
2022-08-02T06:53:08.055Z,5.40
2022-08-02T06:55:53.431Z,6.80
2022-08-02T06:58:46.599Z,7.30
2022-08-02T07:01:38.823Z,7.00
2022-08-02T07:04:34.945Z,9.00
2022-08-02T07:07:11.245Z,7.00
2022-08-02T07:09:56.998Z,4.00
2022-08-02T07:12:44.009Z,7.20
2022-08-02T07:16:04.003Z,9.40
2022-08-02T07:19:03.723Z,9.30
2022-08-02T07:21:57.869Z,5.20
2022-08-02T07:24:55.848Z,10.30
2022-08-02T07:27:42.150Z,6.40
2022-08-02T07:30:45.363Z,6.10
2022-08-02T07:33:39.035Z,8.10
2022-08-02T07:36:22.789Z,3.10
2022-08-02T07:39:39.284Z,2.30
2022-08-02T07:42:41.988Z,6.90
2022-08-02T07:45:57.130Z,3.40
2022-08-02T07:49:20.111Z,6.90
2022-08-02T07:52:57.262Z,9.80
2022-08-02T07:56:31.860Z,8.20
2022-08-02T07:59:28.410Z,4.10
2022-08-02T08:02:29.277Z,2.60
2022-08-02T08:05:29.384Z,5.20
2022-08-02T08:08:31.154Z,6.60
2022-08-02T08:11:41.282Z,3.20
2022-08-02T08:15:20.707Z,3.90
2022-08-02T08:19:00.399Z,2.90
2022-08-02T08:22:19.996Z,4.50
2022-08-02T08:25:16.594Z,5.10
2022-08-02T08:28:52.888Z,5.80
2022-08-02T08:32:25.220Z,4.30
2022-08-02T08:35:07.528Z,2.00
2022-08-02T08:38:18.586Z,2.90
2022-08-02T08:41:18.313Z,5.30
2022-08-02T08:44:42.224Z,7.60
2022-08-02T08:48:30.614Z,5.00
2022-08-02T08:52:11.716Z,4.00
2022-08-02T08:55:34.719Z,7.50
2022-08-02T08:58:49.212Z,3.80
2022-08-02T09:02:33.620Z,6.00
2022-08-02T09:06:07.038Z,8.00
2022-08-02T09:08:50.548Z,5.10
2022-08-02T09:12:09.017Z,4.00
2022-08-02T09:15:07.507Z,3.80
2022-08-02T09:18:56.901Z,1.20
2022-08-02T09:22:05.003Z,4.40
2022-08-02T09:25:23.163Z,3.90
2022-08-02T09:29:01.709Z,1.70
2022-08-02T09:32:21.082Z,4.20
2022-08-02T09:36:06.665Z,3.10
2022-08-02T09:39:33.956Z,14.70
2022-08-02T09:42:22.438Z,4.60
2022-08-02T09:45:50.732Z,4.70
2022-08-02T09:49:35.641Z,4.80
2022-08-02T09:53:10.479Z,7.40
2022-08-02T09:56:34.314Z,1.60
2022-08-02T10:00:43.365Z,1.40
2022-08-02T10:05:01.756Z,5.40
2022-08-02T10:07:54.311Z,4.70
2022-08-02T10:10:45.365Z,3.20
2022-08-02T10:13:47.879Z,2.80
2022-08-02T10:21:12.243Z,3.60
2022-08-02T10:24:51.405Z,4.30
2022-08-02T10:28:07.810Z,3.10
2022-08-02T10:31:36.795Z,5.00
2022-08-02T10:39:56.876Z,9.40
2022-08-02T10:43:32.571Z,2.70
2022-08-02T10:47:12.457Z,7.10
2022-08-02T10:51:02.925Z,4.30
2022-08-02T10:54:44.200Z,4.60
2022-08-02T10:58:10.709Z,14.50
2022-08-02T11:01:38.978Z,8.60
2022-08-02T11:04:56.867Z,3.40
2022-08-02T11:09:00.985Z,4.50
2022-08-02T11:13:22.223Z,2.60
2022-08-02T11:16:23.876Z,5.00
2022-08-02T11:20:13.469Z,4.60
2022-08-02T11:23:48.313Z,4.70
2022-08-02T11:27:36.499Z,10.80
2022-08-02T11:31:25.490Z,7.90
2022-08-02T11:35:07.837Z,5.60
2022-08-02T11:37:47.353Z,6.40
2022-08-02T11:41:11.412Z,5.10
2022-08-02T11:44:26.739Z,4.30
2022-08-02T11:47:14.282Z,3.70
2022-08-02T11:50:48.079Z,6.30
2022-08-02T11:53:27.743Z,3.10
2022-08-02T11:56:25.263Z,5.00
2022-08-02T11:59:45.062Z,7.80
2022-08-02T12:02:56.877Z,8.10
2022-08-02T12:06:42.694Z,8.00
2022-08-02T12:10:20.738Z,5.30
2022-08-02T12:14:22.467Z,2.30
2022-08-02T12:18:22.614Z,3.10
2022-08-02T12:21:30.362Z,4.20
2022-08-02T12:24:54.905Z,7.20
2022-08-02T12:28:23.144Z,5.50
2022-08-02T12:32:04.496Z,4.10
2022-08-02T12:35:42.967Z,4.30
2022-08-02T12:38:46.327Z,2.90
2022-08-02T12:42:14.015Z,4.70
2022-08-02T12:45:07.991Z,3.70
2022-08-02T12:48:38.048Z,6.10
2022-08-02T12:51:56.440Z,6.50
2022-08-02T12:56:01.426Z,4.40
2022-08-02T12:59:27.840Z,3.60
2022-08-02T13:04:07.294Z,3.50
2022-08-02T13:07:11.021Z,7.60
2022-08-02T13:10:02.501Z,5.20
2022-08-02T13:13:37.940Z,6.70
2022-08-02T13:16:33.227Z,6.00
2022-08-02T13:20:15.129Z,2.20
2022-08-02T13:23:57.670Z,6.00
2022-08-02T13:26:56.105Z,3.50
2022-08-02T13:29:50.244Z,5.60
2022-08-02T13:33:30.786Z,5.60
2022-08-02T13:37:10.606Z,5.20
2022-08-02T13:40:21.211Z,2.80
2022-08-02T13:43:53.433Z,4.40
2022-08-02T13:46:58.726Z,3.20
2022-08-02T13:49:50.821Z,5.70
2022-08-02T13:53:27.310Z,6.40
2022-08-02T13:56:06.629Z,4.10
2022-08-02T13:59:01.096Z,4.20
2022-08-02T14:02:23.202Z,6.60
2022-08-02T14:05:38.614Z,4.70
2022-08-02T14:08:43.798Z,3.00
2022-08-02T14:12:05.818Z,4.00
2022-08-02T14:15:49.263Z,2.90
2022-08-02T14:19:02.875Z,9.60
2022-08-02T14:22:12.890Z,4.10
2022-08-02T14:26:02.529Z,5.40
2022-08-02T14:29:05.134Z,4.00
2022-08-02T14:32:17.505Z,4.40
2022-08-02T14:36:00.158Z,4.00
2022-08-02T14:39:02.143Z,6.30
2022-08-02T14:42:17.302Z,3.30
2022-08-02T14:45:13.074Z,4.00
2022-08-02T14:48:05.925Z,3.40
2022-08-02T14:50:55.740Z,5.20
2022-08-02T14:54:36.054Z,3.80
2022-08-02T14:58:07.926Z,3.80
2022-08-02T15:01:57.290Z,5.00
2022-08-02T15:05:51.150Z,6.70
2022-08-02T15:13:53.649Z,3.80
2022-08-02T15:18:07.201Z,2.50
2022-08-02T15:21:54.727Z,2.70
2022-08-02T15:25:47.112Z,5.80
2022-08-02T15:29:36.319Z,3.20
2022-08-02T15:33:27.957Z,3.10
2022-08-02T15:36:43.045Z,3.50
2022-08-02T15:40:32.662Z,3.70
2022-08-02T15:44:20.616Z,5.40
2022-08-02T15:57:23.207Z,4.50
2022-08-02T16:00:31.470Z,9.10
2022-08-02T16:03:58.888Z,5.80
2022-08-02T16:07:11.771Z,2.50
2022-08-02T16:10:15.168Z,2.40
2022-08-02T16:13:31.071Z,5.10
2022-08-02T16:16:24.999Z,8.30
2022-08-02T16:18:55.285Z,4.10
2022-08-02T16:21:24.051Z,3.20
2022-08-02T16:24:01.539Z,2.80
2022-08-02T16:26:34.329Z,3.30
2022-08-02T16:29:03.511Z,6.30
2022-08-02T16:31:42.642Z,4.30
2022-08-02T16:34:12.702Z,7.90
2022-08-02T16:37:03.615Z,6.60
2022-08-02T16:39:54.405Z,9.50
2022-08-02T16:42:25.646Z,3.20
2022-08-02T16:44:56.813Z,2.10
2022-08-02T16:47:43.298Z,3.60
2022-08-02T16:50:16.854Z,4.50
2022-08-02T16:52:57.756Z,2.60
2022-08-02T16:55:25.874Z,3.70
2022-08-02T16:58:22.635Z,2.00
2022-08-02T17:01:03.436Z,4.40
2022-08-02T17:03:56.985Z,5.80
2022-08-02T17:06:26.051Z,3.60
2022-08-02T17:08:58.220Z,3.10
2022-08-02T17:11:41.452Z,2.80
2022-08-02T17:14:13.010Z,4.90
2022-08-02T17:16:40.848Z,3.10
2022-08-02T17:19:15.625Z,2.30
2022-08-02T17:21:57.573Z,3.90
2022-08-02T17:24:39.859Z,5.80
2022-08-02T17:27:30.610Z,7.70
2022-08-02T17:30:04.269Z,15.60
2022-08-02T17:33:20.932Z,7.30
2022-08-02T17:36:08.333Z,5.40
2022-08-02T17:39:07.576Z,14.10
2022-08-02T17:42:40.516Z,6.30
2022-08-02T17:46:21.458Z,12.60
2022-08-02T17:49:52.570Z,9.60
2022-08-02T17:53:23.089Z,7.10
2022-08-02T17:57:11.207Z,4.90
2022-08-02T18:00:04.378Z,10.80
2022-08-02T18:02:52.766Z,6.10
2022-08-02T18:05:39.701Z,6.10
2022-08-02T18:08:43.145Z,19.90
2022-08-02T18:12:04.842Z,20.90
2022-08-02T18:15:15.572Z,21.50
2022-08-02T18:17:46.461Z,14.30
2022-08-02T18:20:14.240Z,16.70
2022-08-02T18:22:43.098Z,17.70
2022-08-02T18:25:11.737Z,14.80
2022-08-02T18:27:58.970Z,46.90
2022-08-02T18:30:28.469Z,41.00
2022-08-02T18:33:58.147Z,22.70
2022-08-02T18:35:43.208Z,14.80
2022-08-02T18:38:11.591Z,16.30
2022-08-02T18:40:51.553Z,9.40
2022-08-02T18:43:23.693Z,9.80
2022-08-02T18:46:05.687Z,7.60
2022-08-02T18:48:50.558Z,12.70
2022-08-02T18:51:22.525Z,9.20
2022-08-02T18:54:12.108Z,15.10
2022-08-02T18:56:51.433Z,16.10
2022-08-02T18:59:51.423Z,13.40
2022-08-02T19:02:20.693Z,20.10
2022-08-02T19:05:53.556Z,8.60
2022-08-02T19:08:36.687Z,24.30
2022-08-02T19:11:12.491Z,10.10
2022-08-02T19:13:43.339Z,20.60
2022-08-02T19:16:13.973Z,11.00
2022-08-02T19:18:42.926Z,12.00
2022-08-02T19:21:10.504Z,10.20
2022-08-02T19:23:37.818Z,12.30
2022-08-02T19:26:22.472Z,11.40
2022-08-02T19:28:57.830Z,12.00
2022-08-02T19:31:34.685Z,15.00
2022-08-02T19:34:21.267Z,10.00
2022-08-02T19:37:13.247Z,9.90
2022-08-02T19:39:56.778Z,9.50
2022-08-02T19:42:29.463Z,15.80
2022-08-02T19:45:02.274Z,42.70
2022-08-02T19:47:38.511Z,18.90
2022-08-02T19:50:14.737Z,12.10
2022-08-02T19:52:46.901Z,10.50
2022-08-02T19:55:59.803Z,11.80
2022-08-02T19:58:09.753Z,15.20
2022-08-02T20:00:42.498Z,13.80
2022-08-02T20:03:15.904Z,13.40
2022-08-02T20:05:43.270Z,15.90
2022-08-02T20:08:31.552Z,14.40
2022-08-02T20:11:04.310Z,14.30
2022-08-02T20:13:47.280Z,13.20
2022-08-02T20:16:27.996Z,16.60
2022-08-02T20:19:14.184Z,17.10
2022-08-02T20:21:48.330Z,40.20
2022-08-02T20:24:22.497Z,24.80
2022-08-02T20:26:54.069Z,21.70
2022-08-02T20:29:42.797Z,13.70
2022-08-02T20:32:08.598Z,16.60
2022-08-02T20:34:36.223Z,18.10
2022-08-02T20:37:56.072Z,28.60
2022-08-02T20:39:51.759Z,16.80
2022-08-02T20:42:23.817Z,16.80
2022-08-02T20:44:55.835Z,14.80
2022-08-02T20:47:27.562Z,15.40
2022-08-02T20:50:17.075Z,11.80
2022-08-02T20:52:44.237Z,12.20
2022-08-02T20:55:17.178Z,13.20
2022-08-02T20:58:00.020Z,15.00
2022-08-02T21:00:30.413Z,14.40
2022-08-02T21:03:02.646Z,22.00
2022-08-02T21:05:54.518Z,16.90
2022-08-02T21:08:19.976Z,17.90
2022-08-02T21:10:52.374Z,13.10
2022-08-02T21:16:27.224Z,12.30
2022-08-02T21:18:55.329Z,11.70
2022-08-02T21:21:22.074Z,12.00
2022-08-02T21:23:54.818Z,16.80
2022-08-02T21:26:27.991Z,12.20
2022-08-02T21:28:55.813Z,14.20
2022-08-02T21:31:22.398Z,13.50
2022-08-02T21:33:58.529Z,12.70
2022-08-02T21:36:30.674Z,11.40
2022-08-02T21:39:09.242Z,13.60
2022-08-02T21:41:46.576Z,11.70
2022-08-02T21:44:16.224Z,13.50
2022-08-02T21:46:45.241Z,13.70
2022-08-02T21:49:13.645Z,10.40
2022-08-02T21:51:42.845Z,12.40
2022-08-02T21:54:17.628Z,10.60
2022-08-02T21:56:55.592Z,11.00
2022-08-02T21:59:25.977Z,16.90
2022-08-02T22:01:56.837Z,10.40
2022-08-02T22:04:27.653Z,14.10
2022-08-02T22:06:55.306Z,13.00
2022-08-02T22:09:42.351Z,12.60
2022-08-02T22:12:16.699Z,11.70
2022-08-02T22:14:54.944Z,12.30
2022-08-02T22:17:49.964Z,12.40
2022-08-02T22:20:18.238Z,9.20
2022-08-02T22:22:52.482Z,13.40
2022-08-02T22:25:27.252Z,14.40
2022-08-02T22:28:39.412Z,13.50
2022-08-02T22:30:56.964Z,9.20
2022-08-02T22:33:47.151Z,11.50
2022-08-02T22:36:35.923Z,7.70
2022-08-02T22:42:06.462Z,13.00
2022-08-02T22:44:34.667Z,15.10
2022-08-02T22:47:03.965Z,12.90
2022-08-02T22:49:38.538Z,11.50
2022-08-02T22:52:21.401Z,13.30
2022-08-02T22:54:48.197Z,12.80
2022-08-02T22:57:15.036Z,13.90
2022-08-02T22:59:09.600Z,10.50
2022-08-02T22:59:41.985Z,13.40
2022-08-02T23:02:09.781Z,11.40
2022-08-02T23:04:36.814Z,8.60
2022-08-02T23:07:04.100Z,8.50
2022-08-02T23:09:30.725Z,8.10
2022-08-02T23:11:57.575Z,15.60
2022-08-02T23:14:24.220Z,11.30
2022-08-02T23:17:09.331Z,9.10
2022-08-02T23:19:50.991Z,14.40
2022-08-02T23:22:21.206Z,11.60
2022-08-02T23:24:55.020Z,10.50
2022-08-02T23:27:21.866Z,9.50
2022-08-02T23:29:48.457Z,11.90
2022-08-02T23:32:15.255Z,10.90
2022-08-02T23:34:42.516Z,11.00
2022-08-02T23:37:09.380Z,10.40
2022-08-02T23:39:36.186Z,9.40
2022-08-02T23:42:03.826Z,10.00
2022-08-02T23:44:30.570Z,11.80
2022-08-02T23:46:57.238Z,11.50
2022-08-02T23:49:24.151Z,10.50
2022-08-02T23:51:51.621Z,9.80
2022-08-02T23:54:19.284Z,8.80
2022-08-02T23:56:46.206Z,8.30
2022-08-02T23:59:15.301Z,7.70
